Time;durP1;ratioP1;P1;durP2;ratioP2;P2;SDS_P1;SDS_P2;PMS_P1;PMS_P2;Temp;Humidity;BMP_temperature;BMP_pressure;BME280_temperature;BME280_humidity;BME280_pressure;Samples;Min_cycle;Max_cycle;Signal;HPM_P1;HPM_P2
2021/12/25 00:01:53;;;;;;;38.00;19.83;;;;;;;11.90;100.00;100446.00;5096736;28;20024;-52
2021/12/25 00:04:19;;;;;;;45.47;20.63;;;;;;;12.00;100.00;100453.56;5096601;28;20381;-47
2021/12/25 00:06:45;;;;;;;39.92;19.67;;;;;;;11.83;100.00;100454.06;5096873;28;20257;-51
2021/12/25 00:09:10;;;;;;;36.33;18.93;;;;;;;11.53;100.00;100451.88;5097616;28;20393;-52
2021/12/25 00:11:36;;;;;;;39.20;20.58;;;;;;;11.73;100.00;100459.03;5096603;28;20269;-49
2021/12/25 00:14:09;;;;;;;42.70;19.42;;;;;;;11.72;100.00;100457.38;5096390;28;20089;-50
2021/12/25 00:16:35;;;;;;;45.40;20.08;;;;;;;11.71;100.00;100451.22;5096330;28;20039;-50
2021/12/25 00:19:00;;;;;;;47.83;21.27;;;;;;;11.61;100.00;100453.50;5078375;28;20385;-51
2021/12/25 00:21:26;;;;;;;49.20;21.87;;;;;;;11.45;100.00;100452.97;5096882;28;20064;-49
2021/12/25 00:23:51;;;;;;;48.30;21.57;;;;;;;11.44;100.00;100448.66;5078173;28;20024;-49
2021/12/25 00:26:36;;;;;;;43.63;21.77;;;;;;;11.30;100.00;100447.03;5078002;28;20122;-49
2021/12/25 00:29:16;;;;;;;42.28;19.92;;;;;;;11.25;100.00;100455.69;5081484;28;20036;-52
2021/12/25 00:31:48;;;;;;;43.92;20.95;;;;;;;11.29;100.00;100448.88;5096280;28;20043;-51
2021/12/25 00:34:15;;;;;;;45.67;21.55;;;;;;;11.36;100.00;100453.41;5078557;28;20040;-52
2021/12/25 00:36:41;;;;;;;42.47;19.40;;;;;;;11.45;100.00;100457.47;5096183;28;20039;-48
2021/12/25 00:39:06;;;;;;;40.70;19.83;;;;;;;11.33;100.00;100460.00;5078062;28;20032;-49
2021/12/25 00:41:32;;;;;;;41.50;18.77;;;;;;;11.45;100.00;100455.66;5077871;28;20112;-52
2021/12/25 00:43:58;;;;;;;40.15;19.80;;;;;;;11.26;100.00;100454.63;5077781;28;20307;-50
2021/12/25 00:46:24;;;;;;;38.97;17.47;;;;;;;11.15;100.00;100457.97;5078019;28;20107;-48
2021/12/25 00:48:50;;;;;;;;;;;;;;;11.26;100.00;100459.19;5096568;28;20039;-50
2021/12/25 00:51:16;;;;;;;38.40;17.30;;;;;;;11.39;100.00;100458.34;5096005;28;19908;-48
2021/12/25 00:53:42;;;;;;;41.53;19.05;;;;;;;11.35;100.00;100462.47;5094474;28;20123;-49
2021/12/25 00:56:08;;;;;;;42.13;17.27;;;;;;;10.98;100.00;100463.75;5095554;28;20468;-53
2021/12/25 00:58:34;;;;;;;;;;;;;;;11.04;100.00;100462.91;5095858;28;20048;-49
2021/12/25 01:01:00;;;;;;;35.60;17.20;;;;;;;11.04;100.00;100456.75;5078119;28;20414;-50
2021/12/25 01:03:26;;;;;;;33.38;15.48;;;;;;;11.18;100.00;100457.56;5095547;28;20353;-50
2021/12/25 01:05:53;;;;;;;32.92;15.52;;;;;;;11.24;100.00;100459.38;5095441;28;20028;-47
2021/12/25 01:08:22;;;;;;;32.50;15.65;;;;;;;10.82;100.00;100450.78;5077250;28;20102;-46
2021/12/25 01:10:49;;;;;;;37.08;17.13;;;;;;;11.03;100.00;100453.25;5060737;28;20098;-46
2021/12/25 01:13:23;;;;;;;36.90;17.95;;;;;;;11.11;100.00;100464.78;5077768;28;20063;-48
2021/12/25 01:30:57;;;;;;;27.98;13.90;;;;;;;10.67;100.00;100470.56;5076675;28;20127;-46
2021/12/25 01:36:59;;;;;;;28.95;12.85;;;;;;;10.90;100.00;100472.00;5094753;28;20048;-50
2021/12/25 01:48:19;;;;;;;25.73;11.95;;;;;;;10.50;100.00;100461.28;5081538;28;20123;-46
2021/12/25 01:50:45;;;;;;;28.80;12.48;;;;;;;10.32;100.00;100454.63;5060586;28;20058;-49
2021/12/25 01:53:11;;;;;;;24.58;11.98;;;;;;;10.68;100.00;100452.66;5059775;28;20123;-51
2021/12/25 01:55:38;;;;;;;26.50;11.45;;;;;;;10.80;100.00;100452.84;5060171;28;20054;-48
2021/12/25 01:58:07;;;;;;;26.65;13.10;;;;;;;10.55;100.00;100454.31;5076500;28;20074;-50
2021/12/25 02:00:38;;;;;;;;;;;;;;;10.91;100.00;100452.25;5077098;28;20067;-48
2021/12/25 02:03:06;;;;;;;25.95;11.40;;;;;;;10.81;100.00;100451.81;5094406;28;19916;-51
2021/12/25 02:05:32;;;;;;;24.33;11.65;;;;;;;10.62;100.00;100454.31;5076767;28;20035;-53
2021/12/25 02:07:58;;;;;;;25.02;12.25;;;;;;;10.40;100.00;100467.84;5095071;28;20040;-51
2021/12/25 02:10:24;;;;;;;25.33;11.65;;;;;;;10.41;100.00;100458.81;5077058;28;20456;-56
2021/12/25 02:12:50;;;;;;;25.13;11.73;;;;;;;10.36;100.00;100463.09;5076088;28;20040;-50
2021/12/25 02:15:20;;;;;;;28.15;12.73;;;;;;;10.31;100.00;100466.34;5094618;28;20080;-52
2021/12/25 02:21:11;;;;;;;29.48;14.43;;;;;;;9.94;100.00;100476.56;5075528;28;20047;-54
2021/12/25 02:23:38;;;;;;;29.48;14.23;;;;;;;10.19;100.00;100458.09;5076128;28;20032;-54
2021/12/25 02:26:06;;;;;;;34.50;14.95;;;;;;;10.19;100.00;100461.63;5060602;28;20411;-54
2021/12/25 02:28:32;;;;;;;36.37;15.00;;;;;;;9.94;100.00;100471.22;5075979;28;20100;-49
2021/12/25 02:31:02;;;;;;;34.78;15.68;;;;;;;9.88;100.00;100473.63;5076138;28;20107;-49
2021/12/25 02:33:28;;;;;;;31.00;15.38;;;;;;;9.95;100.00;100472.84;5060126;28;20036;-50
2021/12/25 02:35:55;;;;;;;33.80;15.73;;;;;;;9.86;100.00;100475.69;5094235;28;20074;-53
2021/12/25 02:38:21;;;;;;;42.17;16.45;;;;;;;9.71;100.00;100477.69;5075950;28;20462;-49
2021/12/25 02:40:47;;;;;;;37.25;17.20;;;;;;;9.92;100.00;100482.06;5093707;28;20038;-49
2021/12/25 02:43:12;;;;;;;39.53;16.77;;;;;;;9.65;100.00;100475.78;5094430;28;20042;-55
2021/12/25 02:45:39;;;;;;;43.25;18.45;;;;;;;9.80;100.00;100479.16;5093918;28;20029;-49
2021/12/25 02:48:11;;;;;;;38.85;17.60;;;;;;;9.60;100.00;100471.88;5094149;28;20457;-52
2021/12/25 02:50:39;;;;;;;37.17;17.30;;;;;;;9.55;100.00;100477.00;5076196;28;20469;-49
2021/12/25 02:53:08;;;;;;;43.25;19.48;;;;;;;9.47;100.00;100474.50;5075976;28;20101;-47
2021/12/25 02:55:35;;;;;;;45.00;18.88;;;;;;;9.40;100.00;100479.78;5075570;28;20032;-47
2021/12/25 02:58:01;;;;;;;45.83;19.83;;;;;;;9.49;100.00;100483.13;5075537;28;20039;-54
2021/12/25 03:00:40;;;;;;;45.10;21.45;;;;;;;9.52;100.00;100480.06;5075915;28;20032;-51
2021/12/25 03:03:07;;;;;;;44.50;18.55;;;;;;;9.30;100.00;100480.13;5059302;28;20031;-50
2021/12/25 03:05:34;;;;;;;43.35;20.02;;;;;;;9.35;100.00;100484.06;5059689;28;20032;-52
2021/12/25 03:08:00;;;;;;;47.13;21.38;;;;;;;9.40;100.00;100487.78;5075799;28;20457;-52
2021/12/25 03:10:35;;;;;;;46.90;22.02;;;;;;;9.42;100.00;100477.75;5076121;28;20039;-49
2021/12/25 03:13:19;;;;;;;50.15;20.90;;;;;;;9.53;100.00;100479.03;5093363;28;20107;-51
2021/12/25 03:15:47;;;;;;;53.60;23.95;;;;;;;9.50;100.00;100481.25;5075539;28;20032;-52
2021/12/25 03:18:34;;;;;;;51.35;23.15;;;;;;;9.59;100.00;100488.91;5097030;28;20024;-51
2021/12/25 03:21:03;;;;;;;49.72;21.27;;;;;;;9.58;100.00;100481.13;5079925;28;20502;-52
2021/12/25 03:23:30;;;;;;;48.22;22.70;;;;;;;9.38;100.00;100475.66;5080191;28;20035;-51
2021/12/25 03:25:58;;;;;;;50.88;23.33;;;;;;;9.26;100.00;100489.56;5079628;28;20074;-54
2021/12/25 03:28:29;;;;;;;47.13;21.95;;;;;;;9.42;100.00;100493.75;5097426;28;20484;-48
2021/12/25 03:31:05;;;;;;;54.28;23.05;;;;;;;9.52;100.00;100493.41;5080018;28;20511;-51
2021/12/25 03:33:31;;;;;;;49.20;20.95;;;;;;;9.32;100.00;100493.25;5081285;28;20117;-50
2021/12/25 03:35:57;;;;;;;47.22;21.63;;;;;;;9.55;100.00;100503.69;5062635;28;20066;-49
2021/12/25 03:38:26;;;;;;;47.53;22.40;;;;;;;9.23;100.00;100500.63;5079744;28;20528;-50
2021/12/25 03:40:53;;;;;;;48.42;20.92;;;;;;;9.11;100.00;100502.16;5063434;28;20407;-49
2021/12/25 03:43:19;;;;;;;49.72;21.60;;;;;;;9.39;100.00;100498.66;5079114;28;20043;-55
2021/12/25 03:45:46;;;;;;;45.50;20.27;;;;;;;9.22;100.00;100498.94;5097323;28;20032;-48
2021/12/25 03:58:54;;;;;;;39.20;17.38;;;;;;;9.23;100.00;100511.31;5097282;28;20381;-51
2021/12/25 04:06:31;;;;;;;44.92;19.40;;;;;;;9.04;100.00;100510.09;5079556;28;20036;-50
2021/12/25 04:08:58;;;;;;;48.53;21.67;;;;;;;9.07;100.00;100523.06;5078584;28;20452;-48
2021/12/25 04:11:27;;;;;;;;;;;;;;;9.36;100.00;100525.75;5097237;28;20373;-48
2021/12/25 04:13:54;;;;;;;42.45;17.52;;;;;;;9.28;100.00;100532.88;5079337;28;20013;-47
2021/12/25 04:16:21;;;;;;;42.47;18.05;;;;;;;9.25;100.00;100535.09;5078148;28;20040;-46
2021/12/25 04:18:46;;;;;;;51.25;20.15;;;;;;;8.91;100.00;100534.03;5096701;28;20361;-47
2021/12/25 04:21:12;;;;;;;44.28;17.85;;;;;;;8.86;100.00;100537.25;5078114;28;20148;-46
2021/12/25 04:23:40;;;;;;;39.05;18.23;;;;;;;8.89;100.00;100543.03;5078804;28;20024;-53
2021/12/25 04:26:07;;;;;;;41.22;18.90;;;;;;;8.72;100.00;100550.44;5078385;28;20392;-46
2021/12/25 04:28:42;;;;;;;47.03;19.50;;;;;;;8.68;100.00;100541.19;5078109;28;20472;-46
2021/12/25 05:07:12;;;;;;;38.75;15.90;;;;;;;8.53;100.00;100581.22;5087797;28;20039;-51
2021/12/25 05:09:39;;;;;;;28.85;13.98;;;;;;;8.37;100.00;100582.25;5077230;28;20052;-51
2021/12/25 05:12:05;;;;;;;30.52;13.82;;;;;;;8.28;100.00;100575.34;5060624;28;20063;-50
2021/12/25 05:14:31;;;;;;;27.73;12.65;;;;;;;8.38;100.00;100577.72;5077448;28;20043;-49
2021/12/25 05:16:57;;;;;;;28.23;12.98;;;;;;;8.25;100.00;100584.56;5060433;28;20036;-49
2021/12/25 05:19:24;;;;;;;28.83;13.32;;;;;;;8.61;100.00;100585.63;5060997;28;20122;-48
2021/12/25 05:21:50;;;;;;;30.92;12.95;;;;;;;8.57;100.00;100592.34;5061052;28;20034;-53
2021/12/25 05:24:15;;;;;;;34.08;14.18;;;;;;;8.43;100.00;100600.16;5060268;28;20138;-50
2021/12/25 05:26:46;;;;;;;30.90;12.88;;;;;;;8.65;100.00;100600.22;5061846;28;20104;-46
2021/12/25 05:29:12;;;;;;;34.00;14.23;;;;;;;8.43;100.00;100599.34;5095265;28;20366;-48
2021/12/25 05:31:38;;;;;;;25.80;12.07;;;;;;;8.44;100.00;100593.81;5077211;28;20036;-48
2021/12/25 05:34:35;;;;;;;25.02;12.20;;;;;;;8.19;100.00;100590.66;5074215;28;20044;-50
2021/12/25 05:37:19;;;;;;;29.80;12.38;;;;;;;8.44;100.00;100604.47;5095474;28;20097;-48
2021/12/25 05:39:51;;;;;;;25.55;11.85;;;;;;;8.31;100.00;100599.81;5094421;28;20044;-52
2021/12/25 05:42:20;;;;;;;27.90;10.80;;;;;;;8.24;100.00;100600.72;5076577;28;20028;-48
2021/12/25 05:44:47;;;;;;;23.92;11.77;;;;;;;8.22;100.00;100610.75;5077719;28;20214;-49
2021/12/25 05:47:25;;;;;;;23.50;11.75;;;;;;;8.30;100.00;100614.13;5095347;28;20105;-48
2021/12/25 05:49:57;;;;;;;24.25;10.43;;;;;;;8.13;100.00;100607.34;5060671;28;20119;-47
2021/12/25 05:52:41;;;;;;;29.00;12.00;;;;;;;8.27;100.00;100624.34;5094992;28;20047;-46
2021/12/25 05:55:25;;;;;;;23.13;10.90;;;;;;;8.21;100.00;100617.09;5076932;28;20043;-52
2021/12/25 05:58:23;;;;;;;24.88;11.38;;;;;;;8.10;100.00;100619.22;5081461;28;20097;-51
2021/12/25 06:01:01;;;;;;;22.17;11.13;;;;;;;8.13;100.00;100621.50;5077166;28;20036;-48
2021/12/25 06:03:27;;;;;;;26.02;11.65;;;;;;;8.30;100.00;100623.97;5059919;28;20044;-46
2021/12/25 06:05:53;;;;;;;22.30;11.37;;;;;;;8.33;100.00;100623.63;5059844;28;20126;-46
2021/12/25 06:08:18;;;;;;;17.03;8.90;;;;;;;8.03;100.00;100624.44;5076266;28;20265;-48
2021/12/25 06:10:47;;;;;;;24.42;9.50;;;;;;;8.11;100.00;100628.88;5076317;28;20119;-50
2021/12/25 06:13:17;;;;;;;16.23;7.80;;;;;;;7.97;100.00;100635.00;5094821;28;20079;-52
2021/12/25 06:15:44;;;;;;;15.90;7.55;;;;;;;7.94;100.00;100632.72;5076550;28;20040;-47
2021/12/25 06:18:24;;;;;;;14.02;6.45;;;;;;;7.86;100.00;100634.47;5062230;28;20052;-48
2021/12/25 06:21:08;;;;;;;17.38;7.57;;;;;;;7.91;100.00;100643.72;5062602;28;20036;-48
2021/12/25 06:23:51;;;;;;;11.38;6.43;;;;;;;7.69;100.00;100635.63;5076340;28;20039;-49
2021/12/25 06:26:38;;;;;;;14.43;6.85;;;;;;;7.94;100.00;100644.19;5052609;28;20315;-51
2021/12/25 06:29:26;;;;;;;13.02;6.70;;;;;;;8.07;100.00;100654.19;5065264;28;20052;-52
2021/12/25 06:32:16;;;;;;;13.00;5.75;;;;;;;7.80;100.00;100661.78;5042243;28;20047;-53
2021/12/25 06:34:49;;;;;;;9.18;5.25;;;;;;;7.46;100.00;100666.56;5060917;28;20059;-50
2021/12/25 06:37:46;;;;;;;13.88;5.55;;;;;;;7.44;100.00;100662.47;5021762;28;20053;-53
2021/12/25 06:40:31;;;;;;;12.63;5.28;;;;;;;7.77;100.00;100664.00;5093880;28;20051;-51
2021/12/25 06:42:58;;;;;;;12.57;5.93;;;;;;;7.84;100.00;100657.78;5075584;28;20071;-50
2021/12/25 06:45:24;;;;;;;12.27;5.30;;;;;;;7.78;100.00;100653.16;5042830;28;20057;-48
2021/12/25 06:47:50;;;;;;;10.50;4.25;;;;;;;7.95;100.00;100659.13;5075744;28;20032;-53
2021/12/25 06:50:35;;;;;;;9.95;4.70;;;;;;;7.69;100.00;100660.41;5093753;28;20032;-51
2021/12/25 06:53:20;;;;;;;12.38;7.20;;;;;;;7.62;100.00;100658.66;5078932;28;20135;-49
2021/12/25 06:55:52;;;;;;;9.18;5.00;;;;;;;7.55;100.00;100667.34;5061336;28;20040;-52
2021/12/25 06:58:31;;;;;;;10.30;4.95;;;;;;;7.69;100.00;100664.91;5075574;28;20044;-52
2021/12/25 07:00:57;;;;;;;9.10;3.97;;;;;;;7.37;100.00;100667.66;5058737;28;20043;-48
2021/12/25 07:03:23;;;;;;;9.55;4.60;;;;;;;7.58;100.00;100666.97;5075952;28;20123;-48
2021/12/25 07:06:07;;;;;;;11.98;3.83;;;;;;;7.65;100.00;100675.06;5050515;28;20380;-48
2021/12/25 07:08:45;;;;;;;8.48;4.82;;;;;;;7.57;100.00;100683.16;5076390;28;20072;-48
2021/12/25 07:11:29;;;;;;;9.20;4.38;;;;;;;7.46;100.00;100687.06;5078704;28;20063;-52
2021/12/25 07:14:11;;;;;;;7.00;3.97;;;;;;;7.37;100.00;100685.44;5076430;28;20036;-53
2021/12/25 07:16:49;;;;;;;8.63;4.88;;;;;;;7.28;100.00;100700.66;5077984;28;20040;-54
2021/12/25 07:19:17;;;;;;;7.80;4.60;;;;;;;7.10;100.00;100699.09;5093838;28;20036;-54
2021/12/25 07:22:03;;;;;;;8.02;4.68;;;;;;;7.23;100.00;100692.38;5094274;28;20095;-53
2021/12/25 07:24:57;;;;;;;9.02;4.43;;;;;;;7.06;100.00;100700.47;5076384;28;20024;-52
2021/12/25 07:27:28;;;;;;;7.68;4.22;;;;;;;7.20;100.00;100709.53;5076233;28;20036;-50
2021/12/25 07:29:55;;;;;;;9.05;5.28;;;;;;;7.27;100.00;100715.78;5058875;28;20040;-51
2021/12/25 07:32:21;;;;;;;11.20;5.55;;;;;;;6.96;100.00;100711.31;5058690;28;20084;-50
2021/12/25 07:34:47;;;;;;;8.18;4.13;;;;;;;6.96;100.00;100711.31;5075167;28;20072;-47
2021/12/25 07:37:13;;;;;;;;;;;;;;;6.99;100.00;100705.66;5093477;28;20071;-49
2021/12/25 07:39:40;;;;;;;9.88;4.38;;;;;;;6.85;100.00;100711.69;5093904;28;19908;-51
2021/12/25 07:42:06;;;;;;;8.57;4.70;;;;;;;7.35;100.00;100711.41;5075057;28;20036;-52
2021/12/25 07:44:55;;;;;;;8.57;5.05;;;;;;;7.10;100.00;100720.38;5093205;28;20114;-49
2021/12/25 07:47:22;;;;;;;10.82;5.10;;;;;;;7.16;100.00;100719.69;5093234;28;20043;-51
2021/12/25 07:49:49;;;;;;;9.02;5.03;;;;;;;6.95;100.00;100715.00;5075244;28;20025;-46
2021/12/25 07:52:15;;;;;;;9.90;4.68;;;;;;;6.89;100.00;100715.66;5093641;28;20062;-50
2021/12/25 07:54:41;;;;;;;9.07;5.22;;;;;;;6.80;100.00;100722.03;5075082;28;20451;-50
2021/12/25 07:57:07;;;;;;;8.45;4.85;;;;;;;6.71;100.00;100716.75;5092577;28;20036;-49
2021/12/25 07:59:32;;;;;;;11.35;5.22;;;;;;;6.84;100.00;100726.00;5092963;28;20082;-50
2021/12/25 08:01:58;;;;;;;11.32;5.18;;;;;;;6.97;100.00;100728.94;5074961;28;20385;-49
2021/12/25 08:04:23;;;;;;;9.87;4.27;;;;;;;6.82;100.00;100728.84;5078025;28;20039;-51
2021/12/25 08:06:49;;;;;;;8.50;4.90;;;;;;;6.59;100.00;100736.72;5096591;28;20090;-48
2021/12/25 08:09:18;;;;;;;12.18;5.30;;;;;;;6.64;100.00;100736.22;5096812;28;20099;-49
2021/12/25 08:11:43;;;;;;;12.82;5.18;;;;;;;6.56;100.00;100735.22;5078676;28;20043;-53
2021/12/25 08:14:09;;;;;;;10.83;4.90;;;;;;;6.53;100.00;100740.09;5097068;28;20032;-48
2021/12/25 08:16:34;;;;;;;8.37;4.60;;;;;;;6.59;100.00;100742.03;5078404;28;20485;-48
2021/12/25 08:19:00;;;;;;;11.80;5.00;;;;;;;6.68;100.00;100734.88;5078483;28;20656;-50
2021/12/25 08:21:44;;;;;;;10.93;5.22;;;;;;;6.64;100.00;100745.00;5096981;28;20369;-58
2021/12/25 08:24:28;;;;;;;8.73;4.53;;;;;;;6.93;100.00;100746.25;5096986;28;20081;-49
2021/12/25 08:27:12;;;;;;;11.00;5.22;;;;;;;6.87;100.00;100753.06;5096390;28;20213;-48
2021/12/25 08:29:38;;;;;;;10.50;4.93;;;;;;;6.82;100.00;100760.75;5096797;28;20470;-51
2021/12/25 08:32:23;;;;;;;8.75;4.10;;;;;;;6.69;100.00;100758.63;5081441;28;20043;-50
2021/12/25 08:35:01;;;;;;;6.53;3.75;;;;;;;6.86;100.00;100763.88;5096491;28;20473;-51
2021/12/25 08:37:31;;;;;;;7.20;4.03;;;;;;;6.86;100.00;100772.69;5062461;28;20127;-48
2021/12/25 08:39:58;;;;;;;8.00;4.07;;;;;;;6.71;100.00;100769.06;5078536;28;20170;-51
2021/12/25 08:42:24;;;;;;;7.78;3.60;;;;;;;6.80;100.00;100769.88;5078062;28;20024;-49
2021/12/25 08:47:20;;;;;;;6.38;3.95;;;;;;;6.70;100.00;100776.25;5078386;28;20329;-48
2021/12/25 08:49:47;;;;;;;8.27;4.53;;;;;;;6.69;100.00;100769.25;5096007;28;20068;-49
2021/12/25 08:52:15;;;;;;;8.10;4.00;;;;;;;6.52;100.00;100776.44;5078293;28;20515;-53
2021/12/25 08:54:43;;;;;;;10.55;5.80;;;;;;;6.49;100.00;100782.09;5077921;28;20040;-49
2021/12/25 08:57:09;;;;;;;8.82;4.53;;;;;;;6.41;100.00;100782.13;5077738;28;20028;-52
2021/12/25 08:59:35;;;;;;;;;;;;;;;6.48;100.00;100792.91;5045327;28;20187;-51
2021/12/25 09:02:06;;;;;;;8.02;4.95;;;;;;;6.58;100.00;100801.50;5078342;28;19958;-47
2021/12/25 09:04:32;;;;;;;8.82;4.55;;;;;;;6.36;100.00;100800.41;5078310;28;20035;-50
2021/12/25 09:06:58;;;;;;;9.68;5.30;;;;;;;6.68;100.00;100803.97;5077743;28;20038;-53
2021/12/25 09:09:24;;;;;;;7.25;4.95;;;;;;;6.59;100.00;100803.16;5096220;28;20028;-50
2021/12/25 09:11:50;;;;;;;10.55;5.10;;;;;;;6.82;100.00;100805.09;5044009;28;20035;-49
2021/12/25 09:14:16;;;;;;;10.35;5.97;;;;;;;6.76;100.00;100805.78;5060064;28;20036;-53
2021/12/25 09:16:41;;;;;;;7.97;4.82;;;;;;;6.66;100.00;100809.44;5077506;28;20028;-47
2021/12/25 09:19:07;;;;;;;10.40;5.40;;;;;;;6.61;100.00;100806.47;5077396;28;20039;-48
2021/12/25 09:21:33;;;;;;;15.82;6.50;;;;;;;6.78;100.00;100807.25;5060689;28;20039;-51
2021/12/25 09:23:59;;;;;;;11.60;5.30;;;;;;;6.67;100.00;100804.97;5060799;28;20087;-49
2021/12/25 09:26:26;;;;;;;9.07;5.55;;;;;;;6.55;100.00;100805.31;5060816;28;20038;-47
2021/12/25 09:28:51;;;;;;;;;;;;;;;6.44;100.00;100811.81;5061109;28;20043;-54
2021/12/25 09:31:17;;;;;;;6.47;3.77;;;;;;;6.44;100.00;100811.81;5077029;28;19908;-51
2021/12/25 09:33:43;;;;;;;7.43;3.17;;;;;;;6.52;100.00;100812.81;5077051;28;20035;-49
2021/12/25 09:36:09;;;;;;;7.30;3.67;;;;;;;6.34;100.00;100811.19;5094820;28;20031;-50
2021/12/25 09:38:35;;;;;;;8.00;4.17;;;;;;;6.89;100.00;100816.69;5077034;28;20472;-48
2021/12/25 09:41:04;;;;;;;6.57;3.67;;;;;;;7.79;92.71;100817.22;5076814;28;20260;-50
2021/12/25 09:43:30;;;;;;;7.47;3.30;;;;;;;8.73;94.13;100817.91;5060421;28;20036;-48
2021/12/25 09:45:56;;;;;;;6.22;3.70;;;;;;;9.91;75.04;100817.00;5094838;28;20034;-49
2021/12/25 09:48:22;;;;;;;7.53;3.67;;;;;;;10.79;64.03;100821.19;5076364;28;20044;-51
2021/12/25 09:50:48;;;;;;;7.20;2.88;;;;;;;11.32;57.84;100827.81;5095233;28;20069;-51
2021/12/25 09:53:18;;;;;;;5.47;2.78;;;;;;;11.67;54.33;100830.38;5095067;28;20036;-48
2021/12/25 09:55:44;;;;;;;3.25;2.20;;;;;;;12.11;54.65;100835.38;5094512;28;20089;-50
2021/12/25 09:58:10;;;;;;;4.28;1.98;;;;;;;11.72;55.37;100837.78;5094669;28;20048;-49
2021/12/25 10:00:39;;;;;;;3.17;1.77;;;;;;;11.86;53.64;100841.31;5060504;28;20040;-52
2021/12/25 10:03:05;;;;;;;1.90;1.48;;;;;;;11.90;52.56;100837.22;5076777;28;20020;-51
2021/12/25 10:05:35;;;;;;;2.53;1.77;;;;;;;12.13;51.54;100847.56;5095162;28;20457;-52
2021/12/25 10:08:00;;;;;;;2.40;1.70;;;;;;;12.81;49.74;100840.31;5076411;28;20035;-52
2021/12/25 10:10:36;;;;;;;4.30;1.50;;;;;;;12.87;48.93;100847.50;5094496;28;20028;-54
2021/12/25 10:13:03;;;;;;;3.03;1.67;;;;;;;13.20;48.51;100837.69;5076573;28;20435;-53
2021/12/25 10:15:29;;;;;;;2.38;1.60;;;;;;;13.40;45.57;100836.78;5094564;28;20084;-53
2021/12/25 10:17:58;;;;;;;6.03;1.40;;;;;;;13.31;46.42;100831.63;5094470;28;20035;-52
2021/12/25 10:20:26;;;;;;;2.83;1.60;;;;;;;13.51;45.85;100829.94;5076372;28;20346;-53
2021/12/25 10:23:01;;;;;;;3.00;1.43;;;;;;;13.47;45.87;100833.03;5094314;28;20279;-52
2021/12/25 10:25:38;;;;;;;2.23;1.33;;;;;;;13.14;47.56;100825.09;5093554;28;20272;-52
2021/12/25 10:28:08;;;;;;;;;;;;;;;13.25;44.31;100823.59;5077032;28;20290;-54
2021/12/25 10:30:54;;;;;;;2.97;1.30;;;;;;;13.53;44.95;100819.78;5094025;28;19907;-53
2021/12/25 10:33:38;;;;;;;2.33;1.33;;;;;;;13.15;44.86;100822.22;5094527;28;20261;-53
2021/12/25 10:36:08;;;;;;;2.90;1.20;;;;;;;14.00;40.30;100822.16;5094167;28;20276;-50
2021/12/25 10:38:35;;;;;;;2.93;1.27;;;;;;;14.37;42.49;100816.06;5076154;28;20264;-52
2021/12/25 10:41:20;;;;;;;2.25;1.38;;;;;;;14.49;40.60;100831.25;5093932;28;20253;-51
2021/12/25 10:43:49;;;;;;;1.40;1.10;;;;;;;14.58;41.05;100823.72;5094168;28;20056;-49
2021/12/25 10:46:14;;;;;;;2.10;1.23;;;;;;;14.29;41.30;100819.84;5093519;28;20260;-51
2021/12/25 10:48:40;;;;;;;1.27;1.10;;;;;;;14.32;42.73;100822.94;5076183;28;20268;-58
2021/12/25 10:51:22;;;;;;;3.60;1.40;;;;;;;14.58;41.00;100814.84;5042087;28;20032;-55
2021/12/25 10:53:52;;;;;;;4.97;1.33;;;;;;;15.16;42.36;100815.44;5093801;28;20462;-55
2021/12/25 10:56:19;;;;;;;3.80;1.30;;;;;;;15.03;37.82;100816.44;5093286;28;20741;-52
2021/12/25 10:58:45;;;;;;;1.83;1.33;;;;;;;14.94;41.84;100815.91;5093931;28;20717;-52
2021/12/25 11:01:13;;;;;;;1.90;1.10;;;;;;;15.51;36.79;100816.63;5093709;28;20291;-51
2021/12/25 11:03:43;;;;;;;4.70;1.47;;;;;;;15.98;34.25;100815.97;5093514;28;20036;-50
2021/12/25 11:06:19;;;;;;;3.03;1.53;;;;;;;15.97;37.26;100822.44;5094415;28;20275;-53
2021/12/25 11:08:46;;;;;;;4.77;1.40;;;;;;;15.98;37.47;100813.28;5076313;28;20355;-53
2021/12/25 11:11:18;;;;;;;2.93;1.30;;;;;;;16.06;36.01;100807.53;5093541;28;20269;-53
2021/12/25 11:13:51;;;;;;;2.03;1.30;;;;;;;16.00;34.71;100808.47;5076034;28;20271;-53
2021/12/25 11:16:28;;;;;;;3.27;1.30;;;;;;;16.01;35.70;100807.44;5075800;28;20734;-53
2021/12/25 11:19:28;;;;;;;2.73;1.20;;;;;;;16.20;36.71;100816.22;5093981;28;20410;-52
2021/12/25 11:21:56;;;;;;;2.03;1.00;;;;;;;16.57;32.72;100817.88;5093569;28;20579;-49
2021/12/25 11:24:27;;;;;;;1.53;1.00;;;;;;;17.08;35.67;100812.75;5093298;28;20255;-52
2021/12/25 11:26:57;;;;;;;2.20;1.00;;;;;;;16.89;33.94;100815.59;5075526;28;20271;-51
2021/12/25 11:29:25;;;;;;;1.77;1.30;;;;;;;17.41;32.45;100821.22;5093659;28;20272;-52
2021/12/25 11:31:54;;;;;;;1.17;1.07;;;;;;;17.13;34.52;100823.66;5075334;28;20268;-54
2021/12/25 11:34:20;;;;;;;2.53;1.43;;;;;;;17.63;32.21;100821.34;5075331;28;20244;-49
2021/12/25 11:36:48;;;;;;;1.77;1.20;;;;;;;17.48;35.01;100819.19;5092999;28;20831;-52
2021/12/25 11:39:19;;;;;;;3.33;1.03;;;;;;;17.78;34.34;100820.81;5096503;28;20024;-51
2021/12/25 11:41:47;;;;;;;1.93;1.07;;;;;;;17.17;32.01;100821.31;5062686;28;20078;-53
2021/12/25 11:44:28;;;;;;;4.07;1.20;;;;;;;17.26;34.82;100821.75;5097123;28;20020;-55
2021/12/25 11:46:53;;;;;;;3.23;1.67;;;;;;;17.99;33.23;100829.25;5096928;28;20123;-52
2021/12/25 11:49:19;;;;;;;3.10;1.52;;;;;;;17.50;33.69;100825.16;5078792;28;20110;-51
2021/12/25 11:51:46;;;;;;;2.35;1.17;;;;;;;17.53;30.70;100834.69;5062259;28;20043;-55
2021/12/25 11:59:50;;;;;;;1.83;1.20;;;;;;;18.38;33.53;100845.59;5080626;28;20036;-54
2021/12/25 12:02:38;;;;;;;1.87;1.10;;;;;;;18.56;31.56;100838.28;5097581;28;20373;-55
2021/12/25 12:05:26;;;;;;;2.40;1.10;;;;;;;18.32;29.22;100825.72;5096630;28;20028;-53
2021/12/25 12:08:09;;;;;;;2.53;1.10;;;;;;;18.79;29.76;100823.66;5097083;28;20112;-55
2021/12/25 12:11:22;;;;;;;2.33;1.30;;;;;;;18.92;28.67;100822.50;5014893;28;20045;-54
2021/12/25 12:14:19;;;;;;;3.40;1.33;;;;;;;19.33;30.16;100822.19;5097019;28;20271;-55
2021/12/25 12:16:57;;;;;;;2.25;1.33;;;;;;;19.94;26.92;100826.56;5080039;28;20058;-52
2021/12/25 12:19:41;;;;;;;2.57;1.30;;;;;;;19.91;26.75;100825.22;5079406;28;20040;-55
2021/12/25 12:22:22;;;;;;;1.93;1.13;;;;;;;19.80;27.62;100823.44;5096339;28;20433;-54
2021/12/25 12:25:42;;;;;;;2.53;1.27;;;;;;;19.90;26.60;100820.81;5061821;28;20085;-53
2021/12/25 12:28:08;;;;;;;3.50;2.30;;;;;;;19.70;26.73;100820.66;5096883;28;20151;-50
2021/12/25 12:30:34;;;;;;;3.38;1.50;;;;;;;20.15;27.19;100821.28;5096165;28;20101;-53
2021/12/25 12:33:03;;;;;;;3.85;2.05;;;;;;;20.31;25.92;100819.53;5096410;28;20032;-52
2021/12/25 12:35:35;;;;;;;3.13;1.40;;;;;;;18.65;27.70;100806.97;5095944;28;20086;-54
2021/12/25 12:38:23;;;;;;;2.37;1.27;;;;;;;16.47;29.13;100813.06;5078889;28;20063;-52
2021/12/25 12:41:25;;;;;;;4.60;1.60;;;;;;;15.18;37.15;100810.63;5096070;28;20031;-51
2021/12/25 12:44:15;;;;;;;2.03;1.23;;;;;;;14.11;33.06;100809.88;5078615;28;20032;-50
2021/12/25 12:46:51;;;;;;;2.93;1.40;;;;;;;14.69;36.03;100815.97;5096724;28;20271;-53
2021/12/25 12:49:27;;;;;;;2.63;1.67;;;;;;;16.17;31.67;100817.53;5095644;28;20338;-52
2021/12/25 12:52:29;;;;;;;2.15;1.13;;;;;;;17.11;29.92;100811.47;5096385;28;20671;-53
2021/12/25 12:55:22;;;;;;;2.93;1.30;;;;;;;17.43;30.48;100802.88;5042237;28;20043;-52
2021/12/25 12:57:48;;;;;;;2.30;1.10;;;;;;;17.41;33.28;100799.59;5095687;28;20618;-51
2021/12/25 13:00:26;;;;;;;2.25;1.40;;;;;;;18.10;29.22;100795.91;5078227;28;20269;-54
2021/12/25 13:02:56;;;;;;;3.07;1.50;;;;;;;19.02;29.83;100802.84;5078074;28;20373;-53
2021/12/25 13:05:25;;;;;;;2.90;1.40;;;;;;;18.72;30.04;100801.38;5096202;28;20352;-52
2021/12/25 13:07:54;;;;;;;5.73;1.57;;;;;;;18.61;29.31;100792.28;5095890;28;20024;-54
2021/12/25 13:12:57;;;;;;;4.10;1.50;;;;;;;18.98;28.86;100802.56;5095922;28;20036;-49